• Join FlightAware (Why Join?)
  • Login
  • US Flag 
12:33PM EDT


 

Airport Tracker/Info


-or-


 

Live Flight TrackerFlight Track Log ✈ CSH9127 ✈ 07-Oct-2013 ✈ ZSSS / SHA - ZBHH / HET

Flight Track Log - Related Links

Times and Time Zones

All times are in EDT time to prevent confusion due to time zone crossing. See the CSH9127 flight status page for this flight to view local times or setup timezone preferences in your user account.

Time Position Orientation Groundspeed Altitude Reporting Facility
EDT Latitude Longitude Course Direction KTS MPH feet Rate Location/Type
12:28AM 32.0205 120.6340 324° Northwest  Level Estimated
12:29AM 32.1231 120.5453 324° Northwest  Level Estimated
12:30AM 32.2256 120.4564 324° Northwest  Level Estimated
12:31AM 32.2955 120.3956 324° Northwest  Level Estimated
12:32AM 32.3655 120.3347 324° Northwest  Level Estimated
12:33AM 32.4354 120.2737 324° Northwest  Level Estimated
12:34AM 32.5053 120.2125 324° Northwest  Level Estimated
12:35AM 32.5752 120.1514 324° Northwest  Level Estimated
12:36AM 32.6450 120.0900 324° Northwest  Level Estimated
12:37AM 32.7148 120.0287 324° Northwest  Level Estimated
12:38AM 32.7846 119.9672 323° Northwest  Level Estimated
12:39AM 32.8543 119.9056 323° Northwest  Level Estimated
12:40AM 32.9240 119.8439 323° Northwest  Level Estimated
12:41AM 32.9937 119.7821 323° Northwest  Level Estimated
12:42AM 33.0633 119.7202 323° Northwest  Level Estimated
12:43AM 33.1330 119.6583 323° Northwest  Level Estimated
12:44AM 33.2025 119.5962 323° Northwest  Level Estimated
12:45AM 33.2721 119.5340 323° Northwest  Level Estimated
12:46AM 33.3416 119.4717 323° Northwest  Level Estimated
12:47AM 33.4111 119.4094 323° Northwest  Level Estimated
12:48AM 33.4806 119.3469 323° Northwest  Level Estimated
12:49AM 33.5500 119.2843 323° Northwest  Level Estimated
12:50AM 33.6194 119.2217 323° Northwest  Level Estimated
12:51AM 33.6888 119.1589 323° Northwest  Level Estimated
12:52AM 33.7581 119.0960 323° Northwest  Level Estimated
12:53AM 33.8274 119.0330 323° Northwest  Level Estimated
12:54AM 33.8967 118.9699 323° Northwest  Level Estimated
12:55AM 33.9660 118.9068 323° Northwest  Level Estimated
12:56AM 34.0352 118.8435 323° Northwest  Level Estimated
12:57AM 34.1044 118.7801 323° Northwest  Level Estimated
12:58AM 34.1735 118.7166 323° Northwest  Level Estimated
12:59AM 34.2426 118.6530 323° Northwest  Level Estimated
01:00AM 34.3117 118.5893 323° Northwest  Level Estimated
01:01AM 34.3807 118.5255 323° Northwest  Level Estimated
01:02AM 34.4497 118.4616 323° Northwest  Level Estimated
01:03AM 34.5187 118.3976 323° Northwest  Level Estimated
01:04AM 34.5877 118.3334 323° Northwest  Level Estimated
01:05AM 34.6566 118.2692 323° Northwest  Level Estimated
01:06AM 34.7255 118.2049 322° Northwest  Level Estimated
01:07AM 34.7943 118.1404 322° Northwest  Level Estimated
01:08AM 34.8631 118.0759 322° Northwest  Level Estimated
01:09AM 34.9319 118.0112 322° Northwest  Level Estimated
01:10AM 35.0006 117.9464 322° Northwest  Level Estimated
01:11AM 35.0693 117.8816 322° Northwest  Level Estimated
01:12AM 35.1380 117.8166 322° Northwest  Level Estimated
01:13AM 35.2066 117.7515 322° Northwest  Level Estimated
01:14AM 35.2752 117.6863 322° Northwest  Level Estimated
01:15AM 35.3438 117.6209 322° Northwest  Level Estimated
01:16AM 35.4123 117.5555 322° Northwest  Level Estimated
01:17AM 35.4809 117.4900 322° Northwest  Level Estimated
01:18AM 35.5493 117.4243 322° Northwest  Level Estimated
01:19AM 35.6177 117.3586 322° Northwest  Level Estimated
01:20AM 35.6861 117.2927 322° Northwest  Level Estimated
01:21AM 35.7545 117.2267 322° Northwest  Level Estimated
01:22AM 35.8228 117.1606 322° Northwest  Level Estimated
01:23AM 35.8911 117.0944 322° Northwest  Level Estimated
01:24AM 35.9593 117.0281 322° Northwest  Level Estimated
01:25AM 36.0275 116.9616 322° Northwest  Level Estimated
01:26AM 36.0957 116.8951 322° Northwest  Level Estimated
01:27AM 36.1638 116.8284 322° Northwest  Level Estimated
01:28AM 36.2319 116.7616 322° Northwest  Level Estimated
01:29AM 36.3000 116.6947 322° Northwest  Level Estimated
01:30AM 36.3680 116.6277 322° Northwest  Level Estimated
01:31AM 36.4360 116.5605 322° Northwest  Level Estimated
01:32AM 36.5040 116.4933 322° Northwest  Level Estimated
01:33AM 36.5719 116.4259 321° Northwest  Level Estimated
01:34AM 36.6398 116.3584 321° Northwest  Level Estimated
01:35AM 36.7076 116.2908 321° Northwest  Level Estimated
01:36AM 36.7754 116.2231 321° Northwest  Level Estimated
01:37AM 36.8432 116.1552 321° Northwest  Level Estimated
01:38AM 36.9109 116.0872 321° Northwest  Level Estimated
01:39AM 36.9785 116.0191 321° Northwest  Level Estimated
01:40AM 37.0462 115.9509 321° Northwest  Level Estimated
01:41AM 37.1138 115.8826 321° Northwest  Level Estimated
01:42AM 37.1814 115.8141 321° Northwest  Level Estimated
01:43AM 37.2489 115.7455 321° Northwest  Level Estimated
01:44AM 37.3163 115.6768 321° Northwest  Level Estimated
01:45AM 37.3838 115.6080 321° Northwest  Level Estimated
01:46AM 37.4512 115.5390 321° Northwest  Level Estimated
01:47AM 37.5186 115.4700 321° Northwest  Level Estimated
01:48AM 37.5859 115.4008 321° Northwest  Level Estimated
01:49AM 37.6531 115.3314 321° Northwest  Level Estimated
01:50AM 37.7204 115.2620 321° Northwest  Level Estimated
01:51AM 37.7876 115.1924 321° Northwest  Level Estimated
01:52AM 37.8548 115.1227 321° Northwest  Level Estimated
01:53AM 37.9219 115.0529 321° Northwest  Level Estimated
01:54AM 37.9889 114.9829 321° Northwest  Level Estimated
01:55AM 38.0560 114.9128 321° Northwest  Level Estimated
01:56AM 38.1230 114.8426 321° Northwest  Level Estimated
01:57AM 38.1899 114.7722 320° Northwest  Level Estimated
01:58AM 38.2569 114.7018 320° Northwest  Level Estimated
01:59AM 38.3237 114.6312 320° Northwest  Level Estimated
02:00AM 38.3905 114.5604 320° Northwest  Level Estimated
02:01AM 38.4573 114.4896 320° Northwest  Level Estimated
02:02AM 38.5241 114.4186 320° Northwest  Level Estimated
02:03AM 38.5908 114.3474 320° Northwest  Level Estimated
02:04AM 38.6574 114.2762 320° Northwest  Level Estimated
02:05AM 38.7240 114.2048 320° Northwest  Level Estimated
02:06AM 38.7906 114.1333 320° Northwest  Level Estimated
02:07AM 38.8571 114.0616 320° Northwest  Level Estimated
02:08AM 38.9236 113.9898 320° Northwest  Level Estimated
02:09AM 38.9901 113.9179 320° Northwest  Level Estimated
02:10AM 39.0564 113.8458 320° Northwest  Level Estimated
02:11AM 39.1228 113.7736 320° Northwest  Level Estimated
02:12AM 39.1891 113.7013 320° Northwest  Level Estimated
02:13AM 39.2554 113.6288 320° Northwest  Level Estimated
02:14AM 39.3216 113.5562 320° Northwest  Level Estimated
02:15AM 39.3877 113.4835 320° Northwest  Level Estimated
02:16AM 39.4539 113.4106 320° Northwest  Level Estimated
02:17AM 39.5199 113.3375 320° Northwest  Level Estimated
02:18AM 39.5860 113.2644 320° Northwest  Level Estimated
02:19AM 39.6520 113.1911 319° Northwest  Level Estimated
02:20AM 39.7179 113.1176 319° Northwest  Level Estimated
02:21AM 39.7838 113.0441 319° Northwest  Level Estimated
02:22AM 39.8496 112.9703 319° Northwest  Level Estimated
02:23AM 39.9154 112.8965 319° Northwest  Level Estimated
02:24AM 39.9812 112.8225 319° Northwest  Level Estimated
02:25AM 40.0469 112.7483 319° Northwest  Level Estimated
02:26AM 40.1126 112.6740 319° Northwest  Level Estimated
02:27AM 40.1782 112.5996 319° Northwest  Level Estimated
02:28AM 40.2437 112.5250 319° Northwest  Level Estimated
02:29AM 40.3092 112.4503 319° Northwest  Level Estimated
02:30AM 40.3747 112.3754 319° Northwest  Level Estimated
02:31AM 40.4401 112.3004 319° Northwest  Level Estimated
02:32AM 40.5055 112.2252 319° Northwest  Level Estimated
02:33AM 40.5708 112.1499 319° Northwest  Level Estimated
02:34AM 40.6361 112.0745 319° Northwest  Level Estimated
02:35AM 40.7013 111.9989 319° Northwest  Level Estimated
02:36AM 40.7665 111.9231 319° Northwest  Level Estimated
02:37AM 40.8316 111.8472 319° Northwest  Level Estimated
02:38AM 40.8514 111.8241 319° Northwest  Level Estimated
02:39AM 40.8514 111.8241 49° Northeast  Level Estimated
02:40AM 40.8514 111.8241 49° Northeast  Level Estimated
02:41AM 40.8514 111.8241 49° Northeast  Level Estimated
02:42AM 40.8514 111.8241 49° Northeast  Level Estimated
02:43AM 40.8514 111.8241 49° Northeast  Level Estimated
02:44AM 40.8514 111.8241 49° Northeast  Level Estimated
02:45AM 40.8514 111.8241 49° Northeast  Level Estimated
02:46AM 40.8514 111.8241 49° Northeast  Level Estimated
02:47AM 40.8514 111.8241 49° Northeast  Level Estimated
02:48AM 40.8514 111.8241 49° Northeast  Level Estimated
02:49AM 40.8514 111.8241 49° Northeast  Level Estimated
02:50AM 40.8514 111.8241 49° Northeast  Level Estimated
02:51AM 40.8514 111.8241 49° Northeast  Level Estimated
02:52AM 40.8514 111.8241 49° Northeast  Level Estimated
02:53AM 40.8514 111.8241 49° Northeast  Level Estimated
02:54AM 40.8514 111.8241 49° Northeast  Level Estimated
02:55AM 40.8514 111.8241 49° Northeast  Level Estimated
02:56AM 40.8514 111.8241 49° Northeast  Level Estimated
02:57AM 40.8514 111.8241 49° Northeast  Level Estimated
02:58AM 40.8514 111.8241 49° Northeast  Level Estimated